AEA063 LEMD-MMUN
Flight info
| Callsign | AEA063 |
|---|---|
| Flight time | N/A |
| Altitude | 35000 |
| Route | ZMR N733 DESAT/N0497F360 DCT STG DCT KOPAS/M086F360 DCT 45N020W 44N030W 4130N04000W 37N050W/M086F380 32N060W DCT WINGZ DCT SHEIL M330 RUDLI/M086F400 M593 GRATX/N0489F400 Y642 LULLS Y196 CANOA UB879 NOSAT NOSAT1B |
| Aircraft | B789/H-SDE1E2E3FGHIJ2J3J4J5M1RWXY/LB1D1 |
Departure
| Time | 2026-05-05 13:32 |
|---|---|
| Airport | Adolfo Suárez Madrid–Barajas Airport (LEMD) |
Arrival
| Time | N/A |
|---|---|
| Airport | Cancún International Airport (MMUN) |
| Time | Latitude | Longitude | Altitude | Speed | Heading |
|---|---|---|---|---|---|
| 2026-05-05 12:39 | 40.46198 | -3.56996 | 1976 ft | 0 kts | 349° |
| 2026-05-05 13:18 | 40.46186 | -3.56994 | 1981 ft | 2 kts | 349° |
| 2026-05-05 13:18 | 40.46170 | -3.56990 | 1979 ft | 2 kts | 349° |
| 2026-05-05 13:18 | 40.46153 | -3.56986 | 1978 ft | 2 kts | 349° |
| 2026-05-05 13:18 | 40.46137 | -3.56982 | 1976 ft | 2 kts | 2° |
| 2026-05-05 13:19 | 40.46121 | -3.56987 | 1978 ft | 2 kts | 23° |
| 2026-05-05 13:19 | 40.46107 | -3.56998 | 1979 ft | 2 kts | 35° |
| 2026-05-05 13:19 | 40.46095 | -3.57011 | 1980 ft | 2 kts | 45° |
| 2026-05-05 13:19 | 40.46092 | -3.57015 | 1979 ft | 0 kts | 49° |
| 2026-05-05 13:21 | 40.46095 | -3.57011 | 1980 ft | 3 kts | 49° |
| 2026-05-05 13:22 | 40.46114 | -3.56981 | 1978 ft | 5 kts | 51° |
| 2026-05-05 13:22 | 40.46132 | -3.56951 | 1978 ft | 4 kts | 51° |
| 2026-05-05 13:22 | 40.46150 | -3.56924 | 1980 ft | 4 kts | 49° |
| 2026-05-05 13:22 | 40.46177 | -3.56887 | 1980 ft | 7 kts | 42° |
| 2026-05-05 13:23 | 40.46212 | -3.56830 | 1979 ft | 8 kts | 71° |
| 2026-05-05 13:23 | 40.46219 | -3.56757 | 1980 ft | 10 kts | 86° |
| 2026-05-05 13:23 | 40.46224 | -3.56649 | 1979 ft | 14 kts | 78° |
| 2026-05-05 13:23 | 40.46289 | -3.56599 | 1980 ft | 12 kts | 4° |
| 2026-05-05 13:24 | 40.46382 | -3.56590 | 1977 ft | 15 kts | 4° |
| 2026-05-05 13:24 | 40.46502 | -3.56581 | 1977 ft | 19 kts | 3° |
| 2026-05-05 13:24 | 40.46644 | -3.56572 | 1980 ft | 22 kts | 2° |
| 2026-05-05 13:24 | 40.46808 | -3.56560 | 1981 ft | 25 kts | 4° |
| 2026-05-05 13:25 | 40.46990 | -3.56549 | 1985 ft | 27 kts | 356° |
| 2026-05-05 13:25 | 40.47156 | -3.56637 | 1988 ft | 24 kts | 324° |
| 2026-05-05 13:25 | 40.47278 | -3.56758 | 1992 ft | 20 kts | 322° |
| 2026-05-05 13:25 | 40.47376 | -3.56858 | 1994 ft | 16 kts | 322° |
| 2026-05-05 13:26 | 40.47457 | -3.56941 | 1999 ft | 13 kts | 322° |
| 2026-05-05 13:26 | 40.47524 | -3.57009 | 1998 ft | 11 kts | 322° |
| 2026-05-05 13:26 | 40.47577 | -3.57062 | 2000 ft | 8 kts | 322° |
| 2026-05-05 13:26 | 40.47616 | -3.57102 | 1998 ft | 8 kts | 322° |
| 2026-05-05 13:27 | 40.47670 | -3.57157 | 2002 ft | 11 kts | 322° |
| 2026-05-05 13:27 | 40.47742 | -3.57230 | 2002 ft | 15 kts | 322° |
| 2026-05-05 13:27 | 40.47831 | -3.57321 | 2004 ft | 18 kts | 322° |
| 2026-05-05 13:27 | 40.47943 | -3.57436 | 2005 ft | 24 kts | 322° |
| 2026-05-05 13:28 | 40.48091 | -3.57588 | 2001 ft | 31 kts | 322° |
| 2026-05-05 13:28 | 40.48265 | -3.57764 | 1999 ft | 32 kts | 323° |
| 2026-05-05 13:28 | 40.48442 | -3.57925 | 1998 ft | 29 kts | 327° |
| 2026-05-05 13:28 | 40.48594 | -3.58040 | 2007 ft | 22 kts | 347° |
| 2026-05-05 13:29 | 40.48732 | -3.58047 | 2007 ft | 18 kts | 359° |
| 2026-05-05 13:29 | 40.48848 | -3.58039 | 2005 ft | 14 kts | 35° |
| 2026-05-05 13:29 | 40.48859 | -3.57961 | 2005 ft | 8 kts | 92° |
| 2026-05-05 13:29 | 40.48857 | -3.57864 | 2001 ft | 13 kts | 90° |
| 2026-05-05 13:30 | 40.48857 | -3.57709 | 1997 ft | 20 kts | 90° |
| 2026-05-05 13:30 | 40.48952 | -3.57616 | 1995 ft | 20 kts | 357° |
| 2026-05-05 13:30 | 40.49117 | -3.57620 | 1994 ft | 27 kts | 2° |
| 2026-05-05 13:30 | 40.49232 | -3.57478 | 1992 ft | 21 kts | 43° |
| 2026-05-05 13:31 | 40.49327 | -3.57452 | 1988 ft | 0 kts | 360° |
| 2026-05-05 13:31 | 40.49527 | -3.57453 | 1990 ft | 61 kts | 359° |
| 2026-05-05 13:31 | 40.50189 | -3.57458 | 1993 ft | 127 kts | 360° |
| 2026-05-05 13:32 | 40.51276 | -3.57474 | 2005 ft | 184 kts | 357° |
| 2026-05-05 13:32 | 40.52623 | -3.57433 | 2479 ft | 185 kts | 1° |
| 2026-05-05 13:32 | 40.53789 | -3.57512 | 3490 ft | 160 kts | 349° |
| 2026-05-05 13:32 | 40.54991 | -3.57450 | 3720 ft | 188 kts | 4° |
| 2026-05-05 13:33 | 40.56369 | -3.57022 | 4046 ft | 217 kts | 11° |
| 2026-05-05 13:33 | 40.57892 | -3.56435 | 4560 ft | 235 kts | 13° |
| 2026-05-05 13:33 | 40.59460 | -3.55821 | 5459 ft | 235 kts | 12° |
| 2026-05-05 13:33 | 40.61046 | -3.55230 | 6275 ft | 239 kts | 12° |
| 2026-05-05 13:34 | 40.62656 | -3.54637 | 7014 ft | 242 kts | 12° |
| 2026-05-05 13:34 | 40.64312 | -3.54189 | 7681 ft | 244 kts | 359° |
| 2026-05-05 13:34 | 40.66014 | -3.54097 | 8409 ft | 249 kts | 1° |
| 2026-05-05 13:34 | 40.67742 | -3.53908 | 9247 ft | 250 kts | 1° |
| 2026-05-05 13:35 | 40.69491 | -3.53734 | 10026 ft | 254 kts | 0° |
| 2026-05-05 13:35 | 40.71260 | -3.53582 | 10781 ft | 256 kts | 0° |
| 2026-05-05 13:35 | 40.73027 | -3.53430 | 11523 ft | 258 kts | 359° |
| 2026-05-05 13:35 | 40.74771 | -3.53780 | 12163 ft | 253 kts | 330° |
| 2026-05-05 13:36 | 40.76243 | -3.55066 | 12640 ft | 262 kts | 307° |
| 2026-05-05 13:36 | 40.77196 | -3.57202 | 12838 ft | 283 kts | 296° |
| 2026-05-05 13:36 | 40.78121 | -3.59618 | 13026 ft | 308 kts | 295° |
| 2026-05-05 13:36 | 40.78758 | -3.61333 | 13140 ft | 324 kts | 295° |
| 2026-05-05 13:37 | 40.79796 | -3.64121 | 13291 ft | 349 kts | 295° |
| 2026-05-05 13:37 | 40.80913 | -3.67075 | 13663 ft | 365 kts | 296° |
| 2026-05-05 13:37 | 40.82418 | -3.71054 | 14693 ft | 368 kts | 295° |
| 2026-05-05 13:37 | 40.83189 | -3.73107 | 15157 ft | 370 kts | 295° |
| 2026-05-05 13:38 | 40.84334 | -3.76164 | 15882 ft | 373 kts | 295° |
| 2026-05-05 13:38 | 40.85492 | -3.79253 | 16557 ft | 377 kts | 295° |
| 2026-05-05 13:38 | 40.86659 | -3.82360 | 17297 ft | 378 kts | 295° |
| 2026-05-05 13:38 | 40.87833 | -3.85496 | 17904 ft | 384 kts | 295° |
| 2026-05-05 13:39 | 40.89003 | -3.88626 | 18551 ft | 386 kts | 295° |
| 2026-05-05 13:39 | 40.90197 | -3.91823 | 19115 ft | 389 kts | 295° |
| 2026-05-05 13:39 | 40.91415 | -3.95087 | 19685 ft | 392 kts | 295° |
| 2026-05-05 13:39 | 40.92610 | -3.98292 | 20248 ft | 395 kts | 295° |
| 2026-05-05 13:40 | 40.93826 | -4.01557 | 20814 ft | 397 kts | 295° |
| 2026-05-05 13:40 | 40.95052 | -4.04855 | 21340 ft | 401 kts | 295° |
| 2026-05-05 13:40 | 40.96285 | -4.08175 | 21861 ft | 403 kts | 295° |
| 2026-05-05 13:40 | 40.97529 | -4.11527 | 22357 ft | 406 kts | 295° |
| 2026-05-05 13:41 | 40.98780 | -4.14901 | 22849 ft | 409 kts | 295° |
| 2026-05-05 13:41 | 41.00039 | -4.18302 | 23322 ft | 412 kts | 295° |
| 2026-05-05 13:41 | 41.01304 | -4.21723 | 23753 ft | 415 kts | 295° |
| 2026-05-05 13:41 | 41.02575 | -4.25157 | 24167 ft | 417 kts | 295° |
| 2026-05-05 13:42 | 41.03863 | -4.28607 | 24556 ft | 419 kts | 295° |
| 2026-05-05 13:42 | 41.05155 | -4.32072 | 24969 ft | 420 kts | 295° |
| 2026-05-05 13:42 | 41.06448 | -4.35561 | 25357 ft | 422 kts | 295° |
| 2026-05-05 13:42 | 41.07743 | -4.39061 | 25749 ft | 424 kts | 295° |
| 2026-05-05 13:43 | 41.09044 | -4.42575 | 26118 ft | 426 kts | 295° |
| 2026-05-05 13:43 | 41.10350 | -4.46103 | 26507 ft | 427 kts | 295° |
| 2026-05-05 13:43 | 41.11646 | -4.49614 | 26883 ft | 429 kts | 295° |
| 2026-05-05 13:43 | 41.12962 | -4.53181 | 27248 ft | 431 kts | 295° |
| 2026-05-05 13:44 | 41.14278 | -4.56754 | 27624 ft | 432 kts | 295° |
| 2026-05-05 13:44 | 41.15604 | -4.60358 | 27994 ft | 434 kts | 295° |
| 2026-05-05 13:44 | 41.16931 | -4.63969 | 28355 ft | 436 kts | 295° |
| 2026-05-05 13:44 | 41.18262 | -4.67595 | 28716 ft | 438 kts | 295° |
| 2026-05-05 13:45 | 41.19596 | -4.71235 | 29066 ft | 439 kts | 295° |
| 2026-05-05 13:45 | 41.20937 | -4.74898 | 29422 ft | 441 kts | 295° |
| 2026-05-05 13:45 | 41.22279 | -4.78570 | 29755 ft | 443 kts | 295° |
| 2026-05-05 13:45 | 41.23622 | -4.82247 | 30072 ft | 444 kts | 295° |
| 2026-05-05 13:46 | 41.24974 | -4.85954 | 30316 ft | 446 kts | 295° |
| 2026-05-05 13:46 | 41.26330 | -4.89678 | 30556 ft | 448 kts | 295° |
| 2026-05-05 13:46 | 41.27675 | -4.93375 | 30795 ft | 450 kts | 295° |
| 2026-05-05 13:46 | 41.29045 | -4.97147 | 31010 ft | 452 kts | 295° |
| 2026-05-05 13:47 | 41.30414 | -5.00918 | 31236 ft | 454 kts | 295° |
| 2026-05-05 13:47 | 41.31790 | -5.04717 | 31457 ft | 456 kts | 295° |
| 2026-05-05 13:47 | 41.33170 | -5.08532 | 31672 ft | 458 kts | 295° |
| 2026-05-05 13:47 | 41.34552 | -5.12357 | 31933 ft | 459 kts | 294° |
| 2026-05-05 13:48 | 41.35933 | -5.16184 | 32236 ft | 458 kts | 294° |
| 2026-05-05 13:48 | 41.37313 | -5.20012 | 32530 ft | 458 kts | 294° |
| 2026-05-05 13:48 | 41.38689 | -5.23836 | 32834 ft | 458 kts | 294° |
| 2026-05-05 13:48 | 41.40062 | -5.27657 | 33126 ft | 458 kts | 294° |
| 2026-05-05 13:49 | 41.41420 | -5.31441 | 33410 ft | 458 kts | 294° |
| 2026-05-05 13:49 | 41.42791 | -5.35265 | 33704 ft | 458 kts | 294° |
| 2026-05-05 13:49 | 41.44159 | -5.39088 | 33993 ft | 457 kts | 294° |
| 2026-05-05 13:49 | 41.45528 | -5.42916 | 34244 ft | 457 kts | 294° |
| 2026-05-05 13:50 | 41.46896 | -5.46749 | 34469 ft | 457 kts | 294° |
| 2026-05-05 13:50 | 41.48265 | -5.50588 | 34698 ft | 458 kts | 294° |
| 2026-05-05 13:50 | 41.49630 | -5.54423 | 34906 ft | 458 kts | 294° |
| 2026-05-05 13:50 | 41.51001 | -5.58279 | 34976 ft | 462 kts | 294° |
| 2026-05-05 13:51 | 41.54011 | -5.65852 | 34989 ft | 461 kts | 304° |
| 2026-05-05 13:51 | 41.57685 | -5.72871 | 34977 ft | 461 kts | 303° |
| 2026-05-05 13:52 | 41.61224 | -5.79628 | 34971 ft | 460 kts | 303° |
| 2026-05-05 13:52 | 41.64863 | -5.86610 | 34969 ft | 460 kts | 303° |
| 2026-05-05 13:53 | 41.68528 | -5.93646 | 34972 ft | 460 kts | 303° |
| 2026-05-05 13:53 | 41.72180 | -6.00680 | 34970 ft | 459 kts | 303° |
| 2026-05-05 13:54 | 41.75796 | -6.07657 | 34970 ft | 459 kts | 303° |
| 2026-05-05 13:54 | 41.79428 | -6.14684 | 34969 ft | 458 kts | 303° |
| 2026-05-05 13:55 | 41.83048 | -6.21703 | 34965 ft | 457 kts | 303° |
| 2026-05-05 13:55 | 41.86660 | -6.28727 | 34966 ft | 457 kts | 304° |
| 2026-05-05 13:56 | 41.90273 | -6.35767 | 34965 ft | 457 kts | 304° |
| 2026-05-05 13:56 | 41.93852 | -6.42758 | 34964 ft | 457 kts | 304° |
| 2026-05-05 13:57 | 41.97448 | -6.49799 | 34970 ft | 457 kts | 304° |
| 2026-05-05 13:57 | 42.01037 | -6.56843 | 34977 ft | 457 kts | 304° |
| 2026-05-05 13:58 | 42.04626 | -6.63903 | 34982 ft | 457 kts | 304° |
| 2026-05-05 13:58 | 42.08213 | -6.70975 | 34986 ft | 457 kts | 304° |
| 2026-05-05 13:59 | 42.13581 | -6.81590 | 34998 ft | 457 kts | 304° |
| 2026-05-05 14:00 | 42.18344 | -6.91041 | 35010 ft | 458 kts | 304° |
| 2026-05-05 14:00 | 42.22500 | -6.99311 | 35020 ft | 458 kts | 304° |
| 2026-05-05 14:01 | 42.26066 | -7.06424 | 35017 ft | 457 kts | 304° |
| 2026-05-05 14:01 | 42.29619 | -7.13530 | 35027 ft | 456 kts | 304° |
| 2026-05-05 14:02 | 42.33172 | -7.20651 | 35042 ft | 458 kts | 304° |
| 2026-05-05 14:02 | 42.36725 | -7.27790 | 35040 ft | 457 kts | 304° |
| 2026-05-05 14:03 | 42.40277 | -7.34942 | 35038 ft | 457 kts | 304° |
| 2026-05-05 14:03 | 42.43812 | -7.42082 | 35039 ft | 457 kts | 304° |
| 2026-05-05 14:04 | 42.47320 | -7.49178 | 35046 ft | 456 kts | 304° |
| 2026-05-05 14:04 | 42.50846 | -7.56331 | 35046 ft | 456 kts | 304° |
| 2026-05-05 14:05 | 42.54358 | -7.63472 | 35042 ft | 454 kts | 304° |
| 2026-05-05 14:05 | 42.57859 | -7.70608 | 35044 ft | 454 kts | 304° |
| 2026-05-05 14:06 | 42.61351 | -7.77742 | 35051 ft | 454 kts | 304° |
| 2026-05-05 14:06 | 42.64837 | -7.84881 | 35050 ft | 452 kts | 304° |
| 2026-05-05 14:07 | 42.68289 | -7.91966 | 35049 ft | 452 kts | 304° |
| 2026-05-05 14:07 | 42.71760 | -7.99109 | 35048 ft | 452 kts | 304° |
| 2026-05-05 14:08 | 42.75224 | -8.06254 | 35060 ft | 452 kts | 304° |
| 2026-05-05 14:08 | 42.78681 | -8.13401 | 35063 ft | 451 kts | 304° |
| 2026-05-05 14:09 | 42.82095 | -8.20478 | 35063 ft | 450 kts | 304° |
| 2026-05-05 14:09 | 42.85537 | -8.27627 | 35067 ft | 449 kts | 304° |
| 2026-05-05 14:10 | 42.88957 | -8.34750 | 35081 ft | 449 kts | 304° |
| 2026-05-05 14:10 | 42.92279 | -8.41888 | 35090 ft | 448 kts | 298° |
| 2026-05-05 14:11 | 42.94571 | -8.49842 | 35081 ft | 451 kts | 292° |
| 2026-05-05 14:11 | 42.96661 | -8.57923 | 35080 ft | 451 kts | 292° |
| 2026-05-05 14:12 | 42.98736 | -8.66019 | 35079 ft | 451 kts | 292° |
| 2026-05-05 14:12 | 43.00811 | -8.74117 | 35064 ft | 451 kts | 292° |
| 2026-05-05 14:13 | 43.02872 | -8.82202 | 35064 ft | 450 kts | 292° |
| 2026-05-05 14:13 | 43.04914 | -8.90230 | 35063 ft | 449 kts | 292° |
| 2026-05-05 14:14 | 43.06961 | -8.98314 | 35066 ft | 451 kts | 291° |
| 2026-05-05 14:14 | 43.09008 | -9.06422 | 35066 ft | 452 kts | 291° |
| 2026-05-05 14:15 | 43.11056 | -9.14560 | 35072 ft | 452 kts | 291° |
| 2026-05-05 14:15 | 43.13095 | -9.22692 | 35078 ft | 452 kts | 291° |
| 2026-05-05 14:16 | 43.15129 | -9.30833 | 35075 ft | 452 kts | 291° |
| 2026-05-05 14:16 | 43.17161 | -9.38998 | 35072 ft | 452 kts | 291° |
| 2026-05-05 14:17 | 43.19174 | -9.47109 | 35071 ft | 453 kts | 291° |
| 2026-05-05 14:17 | 43.21198 | -9.55299 | 35076 ft | 454 kts | 291° |
| 2026-05-05 14:18 | 43.23223 | -9.63518 | 35077 ft | 455 kts | 291° |
| 2026-05-05 14:18 | 43.25243 | -9.71747 | 35078 ft | 455 kts | 290° |
| 2026-05-05 14:19 | 43.27257 | -9.79983 | 35082 ft | 455 kts | 290° |
| 2026-05-05 14:19 | 43.29252 | -9.88169 | 35087 ft | 455 kts | 290° |
| 2026-05-05 14:20 | 43.31256 | -9.96421 | 35082 ft | 455 kts | 290° |
| 2026-05-05 14:20 | 43.33255 | -10.04682 | 35089 ft | 455 kts | 290° |
| 2026-05-05 14:21 | 43.35235 | -10.12896 | 35085 ft | 455 kts | 290° |
| 2026-05-05 14:21 | 43.37220 | -10.21162 | 35089 ft | 455 kts | 290° |
| 2026-05-05 14:22 | 43.39201 | -10.29438 | 35094 ft | 456 kts | 290° |
| 2026-05-05 14:22 | 43.41176 | -10.37720 | 35095 ft | 456 kts | 290° |
| 2026-05-05 14:23 | 43.43146 | -10.46016 | 35108 ft | 457 kts | 289° |
| 2026-05-05 14:23 | 43.45113 | -10.54324 | 35102 ft | 456 kts | 289° |
| 2026-05-05 14:24 | 43.47077 | -10.62653 | 35104 ft | 457 kts | 289° |
| 2026-05-05 14:24 | 43.49032 | -10.70976 | 35106 ft | 457 kts | 289° |
| 2026-05-05 14:25 | 43.50972 | -10.79263 | 35105 ft | 458 kts | 289° |
| 2026-05-05 14:25 | 43.52920 | -10.87618 | 35113 ft | 458 kts | 289° |
| 2026-05-05 14:26 | 43.54864 | -10.95988 | 35116 ft | 458 kts | 289° |
| 2026-05-05 14:26 | 43.56477 | -11.02953 | 35117 ft | 459 kts | 289° |
| 2026-05-05 14:27 | 43.58413 | -11.11347 | 35120 ft | 459 kts | 289° |
| 2026-05-05 14:27 | 43.60346 | -11.19758 | 35122 ft | 460 kts | 289° |
| 2026-05-05 14:28 | 43.62278 | -11.28195 | 35123 ft | 460 kts | 289° |
| 2026-05-05 14:28 | 43.64197 | -11.36612 | 35124 ft | 461 kts | 288° |
| 2026-05-05 14:29 | 43.66117 | -11.45064 | 35129 ft | 461 kts | 288° |
| 2026-05-05 14:29 | 43.68018 | -11.53465 | 35132 ft | 461 kts | 288° |
| 2026-05-05 14:30 | 43.69927 | -11.61935 | 35133 ft | 462 kts | 288° |
| 2026-05-05 14:30 | 43.71835 | -11.70431 | 35137 ft | 462 kts | 288° |
| 2026-05-05 14:31 | 43.73736 | -11.78932 | 35142 ft | 463 kts | 288° |
| 2026-05-05 14:31 | 43.75635 | -11.87457 | 35142 ft | 463 kts | 288° |
| 2026-05-05 14:32 | 43.77517 | -11.95939 | 35147 ft | 464 kts | 288° |
| 2026-05-05 14:32 | 43.79405 | -12.04484 | 35146 ft | 464 kts | 288° |
| 2026-05-05 14:33 | 43.81289 | -12.13042 | 35150 ft | 465 kts | 288° |
| 2026-05-05 14:33 | 43.83168 | -12.21615 | 35150 ft | 465 kts | 288° |
| 2026-05-05 14:34 | 43.85029 | -12.30136 | 35157 ft | 465 kts | 288° |
| 2026-05-05 14:34 | 43.86896 | -12.38724 | 35157 ft | 466 kts | 288° |
| 2026-05-05 14:35 | 43.88763 | -12.47343 | 35159 ft | 467 kts | 288° |
| 2026-05-05 14:35 | 43.90623 | -12.55966 | 35162 ft | 467 kts | 288° |
| 2026-05-05 14:36 | 43.92478 | -12.64605 | 35162 ft | 467 kts | 288° |
| 2026-05-05 14:36 | 43.94329 | -12.73256 | 35171 ft | 467 kts | 288° |
| 2026-05-05 14:37 | 43.96171 | -12.81902 | 35168 ft | 467 kts | 288° |
| 2026-05-05 14:37 | 43.97998 | -12.90516 | 35173 ft | 468 kts | 288° |
| 2026-05-05 14:38 | 43.99829 | -12.99184 | 35172 ft | 468 kts | 287° |
| 2026-05-05 14:38 | 44.01392 | -13.07975 | 35189 ft | 469 kts | 285° |
| 2026-05-05 14:39 | 44.02952 | -13.16779 | 35192 ft | 469 kts | 285° |
| 2026-05-05 14:39 | 44.04469 | -13.25552 | 35192 ft | 469 kts | 285° |
| 2026-05-05 14:40 | 44.06007 | -13.34391 | 35189 ft | 468 kts | 285° |
| 2026-05-05 14:40 | 44.07523 | -13.43202 | 35184 ft | 469 kts | 285° |
| 2026-05-05 14:41 | 44.09040 | -13.52028 | 35186 ft | 469 kts | 285° |
| 2026-05-05 14:41 | 44.10541 | -13.60829 | 35192 ft | 470 kts | 285° |
| 2026-05-05 14:42 | 44.12048 | -13.69694 | 35193 ft | 471 kts | 285° |
| 2026-05-05 14:42 | 44.13548 | -13.78571 | 35195 ft | 471 kts | 285° |
| 2026-05-05 14:43 | 44.15031 | -13.87389 | 35197 ft | 471 kts | 285° |
| 2026-05-05 14:43 | 44.16518 | -13.96275 | 35200 ft | 470 kts | 285° |
| 2026-05-05 14:44 | 44.17994 | -14.05142 | 35203 ft | 470 kts | 285° |
| 2026-05-05 14:44 | 44.19466 | -14.14029 | 35201 ft | 470 kts | 285° |
| 2026-05-05 14:45 | 44.20930 | -14.22915 | 35207 ft | 470 kts | 285° |
| 2026-05-05 14:45 | 44.22378 | -14.31751 | 35203 ft | 470 kts | 285° |
| 2026-05-05 14:46 | 44.23827 | -14.40638 | 35205 ft | 469 kts | 285° |
| 2026-05-05 14:46 | 44.25271 | -14.49539 | 35209 ft | 470 kts | 285° |
| 2026-05-05 14:47 | 44.26706 | -14.58437 | 35211 ft | 470 kts | 285° |
| 2026-05-05 14:47 | 44.28133 | -14.67330 | 35214 ft | 469 kts | 285° |
| 2026-05-05 14:48 | 44.29543 | -14.76160 | 35217 ft | 469 kts | 285° |
| 2026-05-05 14:48 | 44.30955 | -14.85057 | 35218 ft | 469 kts | 285° |
| 2026-05-05 14:49 | 44.32357 | -14.93935 | 35223 ft | 468 kts | 285° |
| 2026-05-05 14:49 | 44.33752 | -15.02814 | 35221 ft | 468 kts | 285° |
| 2026-05-05 14:50 | 44.35139 | -15.11691 | 35227 ft | 468 kts | 285° |
| 2026-05-05 14:50 | 44.36519 | -15.20577 | 35227 ft | 468 kts | 284° |
| 2026-05-05 14:51 | 44.37893 | -15.29463 | 35234 ft | 467 kts | 284° |
| 2026-05-05 14:51 | 44.39253 | -15.38316 | 35234 ft | 468 kts | 284° |
| 2026-05-05 14:52 | 44.40613 | -15.47214 | 35232 ft | 468 kts | 284° |
| 2026-05-05 14:52 | 44.41969 | -15.56138 | 35235 ft | 468 kts | 284° |
| 2026-05-05 14:53 | 44.43315 | -15.65039 | 35242 ft | 467 kts | 284° |
| 2026-05-05 14:53 | 44.44654 | -15.73949 | 35237 ft | 467 kts | 284° |
| 2026-05-05 14:54 | 44.45975 | -15.82792 | 35244 ft | 466 kts | 284° |
| 2026-05-05 14:54 | 44.47297 | -15.91685 | 35253 ft | 467 kts | 284° |
| 2026-05-05 14:55 | 44.48614 | -16.00598 | 35248 ft | 467 kts | 284° |
| 2026-05-05 14:55 | 44.49925 | -16.09519 | 35244 ft | 467 kts | 284° |
| 2026-05-05 14:56 | 44.51230 | -16.18450 | 35257 ft | 468 kts | 283° |
| 2026-05-05 14:56 | 44.52528 | -16.27392 | 35252 ft | 468 kts | 283° |
| 2026-05-05 14:57 | 44.53811 | -16.36278 | 35253 ft | 468 kts | 283° |
| 2026-05-05 14:57 | 44.55097 | -16.45238 | 35263 ft | 468 kts | 283° |
| 2026-05-05 14:58 | 44.56374 | -16.54186 | 35256 ft | 467 kts | 283° |
| 2026-05-05 14:58 | 44.57639 | -16.63100 | 35258 ft | 466 kts | 283° |
| 2026-05-05 14:59 | 44.58898 | -16.72031 | 35269 ft | 467 kts | 283° |
| 2026-05-05 14:59 | 44.60144 | -16.80921 | 35276 ft | 466 kts | 283° |
| 2026-05-05 15:00 | 44.61187 | -16.88397 | 35274 ft | 466 kts | 283° |
| 2026-05-05 15:00 | 44.62626 | -16.98781 | 35274 ft | 466 kts | 283° |
| 2026-05-05 15:01 | 44.63856 | -17.07717 | 35274 ft | 465 kts | 282° |
| 2026-05-05 15:01 | 44.65076 | -17.16634 | 35272 ft | 465 kts | 282° |
| 2026-05-05 15:02 | 44.66288 | -17.25543 | 35282 ft | 464 kts | 282° |
| 2026-05-05 15:02 | 44.67495 | -17.34474 | 35287 ft | 465 kts | 282° |
| 2026-05-05 15:03 | 44.68687 | -17.43350 | 35287 ft | 465 kts | 282° |
| 2026-05-05 15:03 | 44.69880 | -17.52283 | 35290 ft | 464 kts | 282° |
| 2026-05-05 15:04 | 44.71064 | -17.61211 | 35284 ft | 464 kts | 282° |
| 2026-05-05 15:04 | 44.72242 | -17.70143 | 35289 ft | 464 kts | 282° |
| 2026-05-05 15:05 | 44.73995 | -17.83549 | 35289 ft | 465 kts | 282° |
| 2026-05-05 15:06 | 44.75147 | -17.92427 | 35291 ft | 464 kts | 281° |
| 2026-05-05 15:06 | 44.76300 | -18.01370 | 35293 ft | 465 kts | 281° |
| 2026-05-05 15:07 | 44.77447 | -18.10328 | 35298 ft | 465 kts | 281° |
| 2026-05-05 15:07 | 44.78589 | -18.19298 | 35302 ft | 465 kts | 281° |
| 2026-05-05 15:08 | 44.79724 | -18.28272 | 35299 ft | 465 kts | 281° |
| 2026-05-05 15:08 | 44.80846 | -18.37208 | 35302 ft | 465 kts | 281° |
| 2026-05-05 15:09 | 44.81965 | -18.46178 | 35303 ft | 465 kts | 281° |
| 2026-05-05 15:09 | 44.83077 | -18.55153 | 35306 ft | 465 kts | 281° |
| 2026-05-05 15:10 | 44.84177 | -18.64091 | 35310 ft | 465 kts | 282° |
| 2026-05-05 15:10 | 44.85275 | -18.73068 | 35309 ft | 464 kts | 282° |
| 2026-05-05 15:11 | 44.86367 | -18.82055 | 35310 ft | 465 kts | 282° |
| 2026-05-05 15:11 | 44.87452 | -18.91056 | 35313 ft | 464 kts | 282° |
| 2026-05-05 15:12 | 44.88522 | -18.99990 | 35313 ft | 464 kts | 282° |
| 2026-05-05 15:12 | 44.89589 | -19.08961 | 35317 ft | 463 kts | 282° |
| 2026-05-05 15:13 | 44.90649 | -19.17930 | 35319 ft | 463 kts | 282° |
| 2026-05-05 15:13 | 44.91699 | -19.26881 | 35321 ft | 461 kts | 283° |
| 2026-05-05 15:14 | 44.92738 | -19.35803 | 35319 ft | 460 kts | 283° |
| 2026-05-05 15:14 | 44.93595 | -19.43208 | 35323 ft | 459 kts | 283° |
| 2026-05-05 15:15 | 44.94619 | -19.52111 | 35325 ft | 459 kts | 283° |
| 2026-05-05 15:15 | 44.95797 | -19.62437 | 35321 ft | 458 kts | 283° |
| 2026-05-05 15:16 | 44.96633 | -19.69816 | 35321 ft | 457 kts | 284° |
| 2026-05-05 15:16 | 44.97632 | -19.78687 | 35321 ft | 457 kts | 284° |
| 2026-05-05 15:17 | 44.98622 | -19.87552 | 35326 ft | 456 kts | 284° |
| 2026-05-05 15:17 | 44.99604 | -19.96403 | 35329 ft | 455 kts | 284° |
| 2026-05-05 15:18 | 44.99694 | -20.05439 | 35337 ft | 466 kts | 272° |
| 2026-05-05 15:18 | 44.99195 | -20.14507 | 35340 ft | 466 kts | 272° |
| 2026-05-05 15:19 | 44.98673 | -20.23628 | 35333 ft | 465 kts | 272° |
| 2026-05-05 15:19 | 44.98151 | -20.32734 | 35336 ft | 464 kts | 273° |
| 2026-05-05 15:20 | 44.97620 | -20.41828 | 35337 ft | 464 kts | 273° |
| 2026-05-05 15:20 | 44.97084 | -20.50897 | 35333 ft | 463 kts | 273° |
| 2026-05-05 15:21 | 44.96544 | -20.59903 | 35334 ft | 463 kts | 273° |
| 2026-05-05 15:21 | 44.95993 | -20.68964 | 35340 ft | 462 kts | 273° |
| 2026-05-05 15:22 | 44.95437 | -20.78012 | 35338 ft | 462 kts | 273° |
| 2026-05-05 15:22 | 44.94873 | -20.87060 | 35338 ft | 462 kts | 273° |
| 2026-05-05 15:23 | 44.94306 | -20.96032 | 35340 ft | 461 kts | 273° |
| 2026-05-05 15:23 | 44.93729 | -21.05048 | 35340 ft | 461 kts | 272° |
| 2026-05-05 15:24 | 44.93145 | -21.14077 | 35337 ft | 461 kts | 272° |
| 2026-05-05 15:24 | 44.92554 | -21.23082 | 35344 ft | 461 kts | 272° |
| 2026-05-05 15:25 | 44.91960 | -21.32050 | 35343 ft | 461 kts | 272° |
| 2026-05-05 15:25 | 44.91354 | -21.41063 | 35343 ft | 461 kts | 272° |
| 2026-05-05 15:26 | 44.90742 | -21.50076 | 35349 ft | 461 kts | 272° |
| 2026-05-05 15:26 | 44.90123 | -21.59072 | 35348 ft | 460 kts | 272° |
| 2026-05-05 15:27 | 44.89501 | -21.68027 | 35348 ft | 460 kts | 272° |
| 2026-05-05 15:27 | 44.88869 | -21.77009 | 35348 ft | 460 kts | 271° |
| 2026-05-05 15:28 | 44.88230 | -21.85991 | 35355 ft | 459 kts | 271° |
| 2026-05-05 15:28 | 44.87585 | -21.94962 | 35352 ft | 459 kts | 271° |
| 2026-05-05 15:29 | 44.86937 | -22.03865 | 35354 ft | 459 kts | 271° |
| 2026-05-05 15:29 | 44.86278 | -22.12826 | 35351 ft | 459 kts | 271° |
| 2026-05-05 15:30 | 44.85613 | -22.21780 | 35350 ft | 459 kts | 271° |
| 2026-05-05 15:30 | 44.84940 | -22.30737 | 35354 ft | 459 kts | 271° |
| 2026-05-05 15:31 | 44.84261 | -22.39677 | 35359 ft | 459 kts | 270° |
| 2026-05-05 15:31 | 44.83573 | -22.48641 | 35357 ft | 459 kts | 270° |
| 2026-05-05 15:32 | 44.82884 | -22.57528 | 35353 ft | 459 kts | 270° |
| 2026-05-05 15:32 | 44.82184 | -22.66472 | 35355 ft | 459 kts | 270° |
| 2026-05-05 15:33 | 44.81475 | -22.75422 | 35362 ft | 459 kts | 270° |
| 2026-05-05 15:33 | 44.80761 | -22.84365 | 35360 ft | 459 kts | 270° |
| 2026-05-05 15:34 | 44.80038 | -22.93307 | 35366 ft | 459 kts | 270° |
| 2026-05-05 15:34 | 44.79311 | -23.02232 | 35360 ft | 459 kts | 269° |
| 2026-05-05 15:35 | 44.78581 | -23.11100 | 35369 ft | 459 kts | 269° |
| 2026-05-05 15:35 | 44.77839 | -23.20031 | 35364 ft | 459 kts | 269° |
| 2026-05-05 15:36 | 44.77088 | -23.28973 | 35359 ft | 459 kts | 269° |
| 2026-05-05 15:36 | 44.76331 | -23.37912 | 35363 ft | 459 kts | 269° |
| 2026-05-05 15:37 | 44.75572 | -23.46790 | 35370 ft | 459 kts | 269° |
| 2026-05-05 15:37 | 44.74802 | -23.55705 | 35367 ft | 459 kts | 269° |
| 2026-05-05 15:38 | 44.74024 | -23.64640 | 35371 ft | 459 kts | 268° |
| 2026-05-05 15:38 | 44.73239 | -23.73566 | 35380 ft | 459 kts | 268° |
| 2026-05-05 15:39 | 44.72447 | -23.82490 | 35373 ft | 460 kts | 268° |
| 2026-05-05 15:39 | 44.71653 | -23.91355 | 35378 ft | 460 kts | 268° |
| 2026-05-05 15:40 | 44.70846 | -24.00294 | 35382 ft | 460 kts | 268° |
| 2026-05-05 15:40 | 44.70033 | -24.09217 | 35375 ft | 460 kts | 268° |
| 2026-05-05 15:41 | 44.69212 | -24.18139 | 35375 ft | 459 kts | 268° |
| 2026-05-05 15:41 | 44.68392 | -24.26982 | 35378 ft | 459 kts | 268° |
| 2026-05-05 15:42 | 44.67562 | -24.35854 | 35378 ft | 457 kts | 268° |
| 2026-05-05 15:42 | 44.66727 | -24.44709 | 35379 ft | 457 kts | 268° |
| 2026-05-05 15:43 | 44.65885 | -24.53556 | 35380 ft | 457 kts | 268° |
| 2026-05-05 15:43 | 44.65036 | -24.62406 | 35384 ft | 457 kts | 268° |
| 2026-05-05 15:44 | 44.64180 | -24.71257 | 35381 ft | 458 kts | 268° |
| 2026-05-05 15:44 | 44.63320 | -24.80068 | 35385 ft | 457 kts | 268° |
| 2026-05-05 15:45 | 44.62452 | -24.88893 | 35383 ft | 456 kts | 268° |
| 2026-05-05 15:45 | 44.61579 | -24.97705 | 35393 ft | 455 kts | 268° |
| 2026-05-05 15:46 | 44.60698 | -25.06518 | 35388 ft | 455 kts | 268° |
| 2026-05-05 15:46 | 44.59813 | -25.15299 | 35392 ft | 455 kts | 268° |
| 2026-05-05 15:47 | 44.58922 | -25.24076 | 35394 ft | 454 kts | 268° |
| 2026-05-05 15:47 | 44.58026 | -25.32834 | 35391 ft | 452 kts | 268° |
| 2026-05-05 15:48 | 44.57132 | -25.41507 | 35394 ft | 452 kts | 268° |
| 2026-05-05 15:48 | 44.56226 | -25.50230 | 35395 ft | 452 kts | 268° |
| 2026-05-05 15:49 | 44.55312 | -25.58953 | 35394 ft | 452 kts | 268° |
| 2026-05-05 15:49 | 44.54393 | -25.67660 | 35397 ft | 451 kts | 268° |
| 2026-05-05 15:50 | 44.53474 | -25.76311 | 35398 ft | 451 kts | 268° |
| 2026-05-05 15:50 | 44.52543 | -25.85004 | 35410 ft | 450 kts | 268° |
| 2026-05-05 15:51 | 44.51606 | -25.93689 | 35407 ft | 450 kts | 269° |
| 2026-05-05 15:51 | 44.50662 | -26.02374 | 35403 ft | 450 kts | 269° |
| 2026-05-05 15:52 | 44.49715 | -26.11035 | 35403 ft | 449 kts | 269° |
| 2026-05-05 15:52 | 44.48761 | -26.19679 | 35400 ft | 449 kts | 269° |
| 2026-05-05 15:53 | 44.47802 | -26.28319 | 35404 ft | 449 kts | 269° |
| 2026-05-05 15:53 | 44.46842 | -26.36904 | 35408 ft | 448 kts | 269° |
| 2026-05-05 15:54 | 44.45871 | -26.45526 | 35410 ft | 447 kts | 269° |
| 2026-05-05 15:54 | 44.44896 | -26.54129 | 35408 ft | 447 kts | 269° |
| 2026-05-05 15:55 | 44.43921 | -26.62662 | 35408 ft | 446 kts | 269° |
| 2026-05-05 15:55 | 44.42938 | -26.71217 | 35405 ft | 446 kts | 269° |
| 2026-05-05 15:56 | 44.41946 | -26.79776 | 35419 ft | 445 kts | 269° |
| 2026-05-05 15:56 | 44.40950 | -26.88323 | 35415 ft | 445 kts | 269° |
| 2026-05-05 15:57 | 44.39948 | -26.96862 | 35410 ft | 444 kts | 269° |
| 2026-05-05 15:57 | 44.38949 | -27.05325 | 35411 ft | 442 kts | 269° |
| 2026-05-05 15:58 | 44.37939 | -27.13816 | 35419 ft | 442 kts | 269° |
| 2026-05-05 15:58 | 44.36925 | -27.22290 | 35416 ft | 442 kts | 269° |
| 2026-05-05 15:59 | 44.35904 | -27.30770 | 35413 ft | 441 kts | 269° |
| 2026-05-05 15:59 | 44.34879 | -27.39221 | 35417 ft | 441 kts | 269° |
| 2026-05-05 16:00 | 44.33854 | -27.47617 | 35417 ft | 440 kts | 269° |
| 2026-05-05 16:00 | 44.32819 | -27.56051 | 35416 ft | 440 kts | 269° |
| 2026-05-05 16:01 | 44.31779 | -27.64466 | 35415 ft | 439 kts | 269° |
| 2026-05-05 16:01 | 44.30734 | -27.72870 | 35422 ft | 437 kts | 269° |
| 2026-05-05 16:02 | 44.29688 | -27.81240 | 35419 ft | 439 kts | 269° |
| 2026-05-05 16:02 | 44.28627 | -27.89663 | 35426 ft | 441 kts | 269° |
| 2026-05-05 16:03 | 44.27738 | -27.96680 | 35427 ft | 441 kts | 269° |
| 2026-05-05 16:03 | 44.26490 | -28.06485 | 35430 ft | 442 kts | 269° |
| 2026-05-05 16:04 | 44.25404 | -28.14945 | 35418 ft | 443 kts | 268° |
| 2026-05-05 16:04 | 44.24491 | -28.22029 | 35428 ft | 443 kts | 268° |
| 2026-05-05 16:05 | 44.23392 | -28.30499 | 35424 ft | 444 kts | 268° |
| 2026-05-05 16:05 | 44.22287 | -28.38967 | 35422 ft | 445 kts | 268° |
| 2026-05-05 16:06 | 44.21181 | -28.47396 | 35419 ft | 445 kts | 268° |
| 2026-05-05 16:06 | 44.20060 | -28.55886 | 35418 ft | 446 kts | 267° |
| 2026-05-05 16:07 | 44.18929 | -28.64401 | 35426 ft | 447 kts | 267° |
| 2026-05-05 16:07 | 44.17789 | -28.72933 | 35424 ft | 448 kts | 267° |
| 2026-05-05 16:08 | 44.16639 | -28.81481 | 35420 ft | 449 kts | 267° |
| 2026-05-05 16:08 | 44.15491 | -28.89975 | 35426 ft | 450 kts | 266° |
| 2026-05-05 16:09 | 44.14323 | -28.98559 | 35423 ft | 451 kts | 266° |
| 2026-05-05 16:09 | 44.13148 | -29.07147 | 35425 ft | 452 kts | 266° |
| 2026-05-05 16:10 | 44.11965 | -29.15740 | 35418 ft | 452 kts | 266° |
| 2026-05-05 16:10 | 44.10773 | -29.24351 | 35419 ft | 453 kts | 266° |
| 2026-05-05 16:11 | 44.09582 | -29.32901 | 35421 ft | 453 kts | 265° |
| 2026-05-05 16:12 | 44.07162 | -29.50128 | 35417 ft | 454 kts | 265° |
| 2026-05-05 16:13 | 44.04096 | -29.71682 | 35423 ft | 455 kts | 265° |
| 2026-05-05 16:13 | 44.02853 | -29.80335 | 35422 ft | 456 kts | 265° |
| 2026-05-05 16:14 | 44.00356 | -29.97561 | 35423 ft | 456 kts | 264° |
| 2026-05-05 16:15 | 43.97101 | -30.14657 | 35430 ft | 459 kts | 260° |
| 2026-05-05 16:16 | 43.93677 | -30.31760 | 35432 ft | 460 kts | 260° |
| 2026-05-05 16:17 | 43.91105 | -30.44523 | 35424 ft | 460 kts | 260° |
| 2026-05-05 16:18 | 43.88509 | -30.57333 | 35425 ft | 460 kts | 259° |
| 2026-05-05 16:19 | 43.85895 | -30.70148 | 35419 ft | 460 kts | 259° |
| 2026-05-05 16:19 | 43.83267 | -30.82956 | 35423 ft | 460 kts | 259° |
| 2026-05-05 16:20 | 43.79755 | -30.99938 | 35420 ft | 459 kts | 259° |
| 2026-05-05 16:22 | 43.75322 | -31.21176 | 35423 ft | 459 kts | 259° |
| 2026-05-05 16:23 | 43.71749 | -31.38135 | 35422 ft | 460 kts | 259° |
| 2026-05-05 16:23 | 43.69049 | -31.50867 | 35427 ft | 460 kts | 259° |
| 2026-05-05 16:24 | 43.67242 | -31.59332 | 35427 ft | 459 kts | 259° |
| 2026-05-05 16:25 | 43.64527 | -31.72004 | 35424 ft | 460 kts | 259° |
| 2026-05-05 16:25 | 43.61784 | -31.84726 | 35426 ft | 461 kts | 259° |
| 2026-05-05 16:26 | 43.58096 | -32.01705 | 35422 ft | 462 kts | 259° |
| 2026-05-05 16:27 | 43.56239 | -32.10201 | 35428 ft | 463 kts | 259° |
| 2026-05-05 16:27 | 43.54370 | -32.18724 | 35423 ft | 464 kts | 259° |
| 2026-05-05 16:28 | 43.52505 | -32.27189 | 35422 ft | 465 kts | 259° |
| 2026-05-05 16:28 | 43.50616 | -32.35735 | 35415 ft | 466 kts | 259° |
| 2026-05-05 16:29 | 43.48721 | -32.44268 | 35418 ft | 465 kts | 259° |
| 2026-05-05 16:29 | 43.46819 | -32.52805 | 35415 ft | 467 kts | 259° |
| 2026-05-05 16:30 | 43.44907 | -32.61345 | 35413 ft | 467 kts | 259° |
| 2026-05-05 16:30 | 43.42990 | -32.69886 | 35412 ft | 467 kts | 259° |
| 2026-05-05 16:31 | 43.41076 | -32.78366 | 35410 ft | 467 kts | 259° |
| 2026-05-05 16:31 | 43.39141 | -32.86918 | 35412 ft | 468 kts | 259° |
| 2026-05-05 16:32 | 43.37201 | -32.95448 | 35415 ft | 467 kts | 259° |
| 2026-05-05 16:32 | 43.35254 | -33.03985 | 35404 ft | 468 kts | 259° |
| 2026-05-05 16:33 | 43.33298 | -33.12518 | 35411 ft | 468 kts | 259° |
| 2026-05-05 16:33 | 43.31349 | -33.20994 | 35402 ft | 468 kts | 259° |
| 2026-05-05 16:34 | 43.29380 | -33.29519 | 35406 ft | 468 kts | 259° |
| 2026-05-05 16:34 | 43.27408 | -33.38032 | 35397 ft | 468 kts | 259° |
| 2026-05-05 16:35 | 43.25424 | -33.46559 | 35404 ft | 468 kts | 259° |
| 2026-05-05 16:35 | 43.23451 | -33.55007 | 35399 ft | 467 kts | 259° |
| 2026-05-05 16:36 | 43.21463 | -33.63486 | 35403 ft | 467 kts | 259° |
| 2026-05-05 16:36 | 43.19469 | -33.71963 | 35396 ft | 467 kts | 259° |
| 2026-05-05 16:37 | 43.17467 | -33.80433 | 35396 ft | 466 kts | 259° |
| 2026-05-05 16:37 | 43.15460 | -33.88901 | 35391 ft | 467 kts | 259° |
| 2026-05-05 16:38 | 43.13459 | -33.97306 | 35394 ft | 466 kts | 259° |
| 2026-05-05 16:38 | 43.11442 | -34.05753 | 35386 ft | 467 kts | 259° |
| 2026-05-05 16:39 | 43.09417 | -34.14193 | 35392 ft | 466 kts | 259° |
| 2026-05-05 16:39 | 43.07384 | -34.22647 | 35390 ft | 468 kts | 259° |
| 2026-05-05 16:40 | 43.05352 | -34.31053 | 35391 ft | 468 kts | 259° |
| 2026-05-05 16:40 | 43.03302 | -34.39513 | 35385 ft | 469 kts | 259° |
| 2026-05-05 16:41 | 43.01241 | -34.47973 | 35389 ft | 469 kts | 259° |
| 2026-05-05 16:41 | 42.99174 | -34.56443 | 35380 ft | 470 kts | 259° |
| 2026-05-05 16:42 | 42.97097 | -34.64909 | 35382 ft | 470 kts | 259° |
| 2026-05-05 16:42 | 42.95025 | -34.73334 | 35378 ft | 471 kts | 259° |
| 2026-05-05 16:43 | 42.92934 | -34.81795 | 35373 ft | 470 kts | 259° |
| 2026-05-05 16:43 | 42.90831 | -34.90285 | 35370 ft | 471 kts | 259° |
| 2026-05-05 16:44 | 42.88721 | -34.98759 | 35373 ft | 471 kts | 259° |
| 2026-05-05 16:44 | 42.86607 | -35.07232 | 35369 ft | 472 kts | 259° |
| 2026-05-05 16:45 | 42.84495 | -35.15657 | 35373 ft | 473 kts | 259° |
| 2026-05-05 16:45 | 42.82361 | -35.24141 | 35369 ft | 473 kts | 258° |
| 2026-05-05 16:46 | 42.80222 | -35.32615 | 35359 ft | 473 kts | 258° |
| 2026-05-05 16:46 | 42.78076 | -35.41088 | 35359 ft | 473 kts | 258° |
| 2026-05-05 16:47 | 42.75925 | -35.49544 | 35369 ft | 473 kts | 258° |
| 2026-05-05 16:47 | 42.73781 | -35.57951 | 35366 ft | 473 kts | 258° |
| 2026-05-05 16:48 | 42.71616 | -35.66404 | 35358 ft | 473 kts | 258° |
| 2026-05-05 16:48 | 42.69445 | -35.74853 | 35355 ft | 472 kts | 258° |
| 2026-05-05 16:49 | 42.67272 | -35.83275 | 35348 ft | 471 kts | 258° |
| 2026-05-05 16:49 | 42.65093 | -35.91697 | 35348 ft | 472 kts | 257° |
| 2026-05-05 16:50 | 42.62927 | -36.00035 | 35351 ft | 471 kts | 257° |
| 2026-05-05 16:50 | 42.61835 | -36.04234 | 35464 ft | 472 kts | 257° |
| 2026-05-05 16:50 | 42.60739 | -36.08431 | 35791 ft | 470 kts | 257° |
| 2026-05-05 16:51 | 42.59645 | -36.12614 | 36062 ft | 470 kts | 257° |
| 2026-05-05 16:51 | 42.58551 | -36.16798 | 36312 ft | 470 kts | 257° |
| 2026-05-05 16:51 | 42.57453 | -36.20987 | 36559 ft | 470 kts | 257° |
| 2026-05-05 16:51 | 42.56354 | -36.25167 | 36818 ft | 470 kts | 257° |
| 2026-05-05 16:52 | 42.55612 | -36.27989 | 36981 ft | 470 kts | 257° |
| 2026-05-05 16:52 | 42.54527 | -36.32108 | 37223 ft | 470 kts | 257° |
| 2026-05-05 16:52 | 42.53425 | -36.36287 | 37442 ft | 471 kts | 257° |
| 2026-05-05 16:52 | 42.52320 | -36.40466 | 37681 ft | 470 kts | 256° |
| 2026-05-05 16:53 | 42.51214 | -36.44638 | 37941 ft | 469 kts | 256° |
| 2026-05-05 16:53 | 42.50111 | -36.48798 | 38196 ft | 469 kts | 256° |
| 2026-05-05 16:53 | 42.49006 | -36.52960 | 38384 ft | 470 kts | 256° |
| 2026-05-05 16:53 | 42.47897 | -36.57125 | 38635 ft | 469 kts | 256° |
| 2026-05-05 16:54 | 42.46790 | -36.61274 | 38865 ft | 469 kts | 256° |
| 2026-05-05 16:54 | 42.45681 | -36.65428 | 39078 ft | 468 kts | 256° |
| 2026-05-05 16:54 | 42.44569 | -36.69583 | 39250 ft | 468 kts | 256° |
| 2026-05-05 16:54 | 42.43458 | -36.73731 | 39323 ft | 471 kts | 256° |
| 2026-05-05 16:55 | 42.41234 | -36.82004 | 39335 ft | 468 kts | 256° |
| 2026-05-05 16:55 | 42.39009 | -36.90259 | 39330 ft | 466 kts | 256° |
| 2026-05-05 16:56 | 42.36783 | -36.98489 | 39329 ft | 465 kts | 256° |
| 2026-05-05 16:56 | 42.34554 | -37.06702 | 39320 ft | 465 kts | 255° |
| 2026-05-05 16:57 | 42.32307 | -37.14959 | 39327 ft | 471 kts | 255° |
| 2026-05-05 16:57 | 42.30016 | -37.23344 | 39341 ft | 479 kts | 255° |
| 2026-05-05 16:58 | 42.27700 | -37.31792 | 39333 ft | 486 kts | 255° |
| 2026-05-05 16:58 | 42.25337 | -37.40377 | 39337 ft | 488 kts | 255° |
| 2026-05-05 16:59 | 42.22968 | -37.48953 | 39332 ft | 486 kts | 255° |
| 2026-05-05 16:59 | 42.20616 | -37.57448 | 39328 ft | 486 kts | 255° |
| 2026-05-05 17:00 | 42.18246 | -37.65972 | 39327 ft | 485 kts | 254° |
| 2026-05-05 17:00 | 42.15856 | -37.74544 | 39321 ft | 485 kts | 254° |
| 2026-05-05 17:01 | 42.13491 | -37.82989 | 39310 ft | 484 kts | 254° |
| 2026-05-05 17:01 | 42.11123 | -37.91429 | 39316 ft | 484 kts | 254° |
| 2026-05-05 17:02 | 42.08732 | -37.99909 | 39315 ft | 482 kts | 254° |
| 2026-05-05 17:02 | 42.06349 | -38.08339 | 39312 ft | 479 kts | 254° |
| 2026-05-05 17:03 | 42.03994 | -38.16646 | 39305 ft | 478 kts | 254° |
| 2026-05-05 17:03 | 42.01620 | -38.24984 | 39299 ft | 474 kts | 254° |
| 2026-05-05 17:04 | 41.99257 | -38.33262 | 39298 ft | 472 kts | 254° |
| 2026-05-05 17:04 | 41.96903 | -38.41479 | 39300 ft | 470 kts | 254° |
| 2026-05-05 17:05 | 41.94568 | -38.49609 | 39299 ft | 469 kts | 254° |
| 2026-05-05 17:05 | 41.92211 | -38.57783 | 39295 ft | 468 kts | 254° |
| 2026-05-05 17:06 | 41.89862 | -38.65906 | 39301 ft | 466 kts | 254° |
| 2026-05-05 17:06 | 41.87512 | -38.74009 | 39295 ft | 465 kts | 253° |
| 2026-05-05 17:07 | 41.85159 | -38.82093 | 39306 ft | 465 kts | 253° |
| 2026-05-05 17:07 | 41.82798 | -38.90181 | 39304 ft | 465 kts | 253° |
| 2026-05-05 17:08 | 41.80437 | -38.98243 | 39299 ft | 464 kts | 253° |
| 2026-05-05 17:08 | 41.78090 | -39.06231 | 39295 ft | 462 kts | 253° |
| 2026-05-05 17:09 | 41.75731 | -39.14237 | 39292 ft | 461 kts | 253° |
| 2026-05-05 17:09 | 41.73368 | -39.22234 | 39287 ft | 462 kts | 252° |
| 2026-05-05 17:10 | 41.70998 | -39.30224 | 39293 ft | 460 kts | 252° |
| 2026-05-05 17:10 | 41.68631 | -39.38187 | 39294 ft | 461 kts | 252° |
| 2026-05-05 17:11 | 41.66260 | -39.46135 | 39289 ft | 462 kts | 252° |
| 2026-05-05 17:11 | 41.63876 | -39.54100 | 39290 ft | 461 kts | 252° |
| 2026-05-05 17:12 | 41.61487 | -39.62063 | 39289 ft | 461 kts | 252° |
| 2026-05-05 17:12 | 41.59088 | -39.70027 | 39285 ft | 461 kts | 252° |
| 2026-05-05 17:13 | 41.56689 | -39.77974 | 39286 ft | 462 kts | 252° |
| 2026-05-05 17:13 | 41.54279 | -39.85931 | 39287 ft | 461 kts | 251° |
| 2026-05-05 17:14 | 41.51883 | -39.93820 | 39288 ft | 461 kts | 251° |
| 2026-05-05 17:14 | 41.49356 | -40.01693 | 39316 ft | 463 kts | 246° |
| 2026-05-05 17:15 | 41.46444 | -40.09334 | 39305 ft | 464 kts | 247° |
| 2026-05-05 17:15 | 41.43511 | -40.17016 | 39304 ft | 464 kts | 247° |
| 2026-05-05 17:16 | 41.40574 | -40.24674 | 39306 ft | 463 kts | 247° |
| 2026-05-05 17:16 | 41.37705 | -40.32146 | 39299 ft | 440 kts | 246° |
| 2026-05-05 17:17 | 41.34930 | -40.39357 | 39297 ft | 438 kts | 246° |
| 2026-05-05 17:17 | 41.32163 | -40.46529 | 39298 ft | 439 kts | 246° |
| 2026-05-05 17:18 | 41.29365 | -40.53757 | 39300 ft | 439 kts | 246° |
| 2026-05-05 17:18 | 41.26568 | -40.60970 | 39298 ft | 438 kts | 246° |
| 2026-05-05 17:19 | 41.23778 | -40.68145 | 39302 ft | 438 kts | 246° |
| 2026-05-05 17:19 | 41.20975 | -40.75337 | 39305 ft | 437 kts | 245° |
| 2026-05-05 17:20 | 41.18171 | -40.82513 | 39311 ft | 437 kts | 245° |
| 2026-05-05 17:20 | 41.15370 | -40.89663 | 39312 ft | 436 kts | 245° |
| 2026-05-05 17:21 | 41.12583 | -40.96760 | 39316 ft | 436 kts | 245° |
| 2026-05-05 17:22 | 41.08371 | -41.07455 | 39315 ft | 435 kts | 245° |
| 2026-05-05 17:22 | 41.05564 | -41.14563 | 39317 ft | 434 kts | 245° |
| 2026-05-05 17:23 | 41.02758 | -41.21648 | 39324 ft | 434 kts | 245° |
| 2026-05-05 17:23 | 40.99970 | -41.28673 | 39320 ft | 434 kts | 245° |
| 2026-05-05 17:24 | 40.97155 | -41.35748 | 39315 ft | 434 kts | 245° |
| 2026-05-05 17:24 | 40.94338 | -41.42811 | 39317 ft | 433 kts | 245° |
| 2026-05-05 17:25 | 40.91522 | -41.49855 | 39317 ft | 433 kts | 245° |
| 2026-05-05 17:25 | 40.88722 | -41.56842 | 39316 ft | 432 kts | 245° |
| 2026-05-05 17:26 | 40.85900 | -41.63867 | 39318 ft | 432 kts | 245° |
| 2026-05-05 17:26 | 40.83078 | -41.70878 | 39320 ft | 432 kts | 245° |
| 2026-05-05 17:27 | 40.80264 | -41.77849 | 39323 ft | 425 kts | 245° |
| 2026-05-05 17:27 | 40.77539 | -41.84583 | 39320 ft | 413 kts | 245° |
| 2026-05-05 17:28 | 40.74835 | -41.91259 | 39321 ft | 413 kts | 245° |
| 2026-05-05 17:28 | 40.72113 | -41.97956 | 39323 ft | 413 kts | 245° |
| 2026-05-05 17:29 | 40.69410 | -42.04594 | 39327 ft | 413 kts | 245° |
| 2026-05-05 17:29 | 40.66688 | -42.11264 | 39326 ft | 413 kts | 245° |
| 2026-05-05 17:30 | 40.63962 | -42.17930 | 39331 ft | 413 kts | 245° |
| 2026-05-05 17:30 | 40.61236 | -42.24580 | 39333 ft | 412 kts | 245° |
| 2026-05-05 17:31 | 40.58525 | -42.31177 | 39330 ft | 412 kts | 245° |
| 2026-05-05 17:31 | 40.55795 | -42.37809 | 39334 ft | 411 kts | 245° |
| 2026-05-05 17:32 | 40.53069 | -42.44415 | 39335 ft | 411 kts | 245° |
| 2026-05-05 17:32 | 40.50341 | -42.51009 | 39343 ft | 410 kts | 245° |
| 2026-05-05 17:33 | 40.47611 | -42.57598 | 39342 ft | 410 kts | 245° |
| 2026-05-05 17:33 | 40.44876 | -42.64183 | 39341 ft | 410 kts | 245° |
| 2026-05-05 17:34 | 40.42143 | -42.70747 | 39350 ft | 410 kts | 245° |
| 2026-05-05 17:34 | 40.39419 | -42.77278 | 39351 ft | 410 kts | 245° |
| 2026-05-05 17:35 | 40.36673 | -42.83844 | 39354 ft | 410 kts | 245° |
| 2026-05-05 17:35 | 40.33925 | -42.90404 | 39354 ft | 410 kts | 245° |
| 2026-05-05 17:36 | 40.31194 | -42.96907 | 39354 ft | 410 kts | 245° |
| 2026-05-05 17:36 | 40.28444 | -43.03443 | 39354 ft | 409 kts | 245° |
| 2026-05-05 17:37 | 40.25691 | -43.09972 | 39357 ft | 409 kts | 245° |
| 2026-05-05 17:37 | 40.22938 | -43.16486 | 39355 ft | 409 kts | 245° |
| 2026-05-05 17:38 | 40.20185 | -43.22986 | 39355 ft | 408 kts | 245° |
| 2026-05-05 17:38 | 40.17893 | -43.28389 | 39354 ft | 408 kts | 245° |
| 2026-05-05 17:39 | 40.14683 | -43.35937 | 39355 ft | 407 kts | 245° |
| 2026-05-05 17:39 | 40.12388 | -43.41323 | 39354 ft | 407 kts | 245° |
| 2026-05-05 17:40 | 40.09634 | -43.47774 | 39354 ft | 406 kts | 245° |
| 2026-05-05 17:40 | 40.06876 | -43.54219 | 39357 ft | 406 kts | 244° |
| 2026-05-05 17:41 | 40.04120 | -43.60648 | 39355 ft | 405 kts | 244° |
| 2026-05-05 17:41 | 40.01361 | -43.67068 | 39358 ft | 405 kts | 244° |
| 2026-05-05 17:42 | 39.98607 | -43.73465 | 39354 ft | 405 kts | 244° |
| 2026-05-05 17:42 | 39.95862 | -43.79826 | 39353 ft | 404 kts | 244° |
| 2026-05-05 17:43 | 39.93102 | -43.86212 | 39353 ft | 404 kts | 244° |
| 2026-05-05 17:43 | 39.90336 | -43.92595 | 39356 ft | 404 kts | 244° |
| 2026-05-05 17:44 | 39.87570 | -43.98966 | 39352 ft | 404 kts | 244° |
| 2026-05-05 17:44 | 39.84825 | -44.05277 | 39349 ft | 403 kts | 244° |
| 2026-05-05 17:45 | 39.82059 | -44.11623 | 39346 ft | 403 kts | 244° |
| 2026-05-05 17:45 | 39.79284 | -44.17974 | 39345 ft | 402 kts | 244° |
| 2026-05-05 17:46 | 39.76517 | -44.24297 | 39346 ft | 402 kts | 244° |
| 2026-05-05 17:46 | 39.73740 | -44.30626 | 39349 ft | 402 kts | 244° |
| 2026-05-05 17:47 | 39.70983 | -44.36900 | 39346 ft | 402 kts | 244° |
| 2026-05-05 17:47 | 39.68210 | -44.43195 | 39349 ft | 402 kts | 244° |
| 2026-05-05 17:48 | 39.65434 | -44.49486 | 39351 ft | 401 kts | 244° |
| 2026-05-05 17:48 | 39.62655 | -44.55773 | 39352 ft | 402 kts | 244° |
| 2026-05-05 17:49 | 39.59869 | -44.62058 | 39352 ft | 402 kts | 244° |
| 2026-05-05 17:49 | 39.57079 | -44.68344 | 39351 ft | 401 kts | 244° |
| 2026-05-05 17:50 | 39.54289 | -44.74615 | 39347 ft | 401 kts | 244° |
| 2026-05-05 17:50 | 39.51523 | -44.80819 | 39353 ft | 400 kts | 244° |
| 2026-05-05 17:51 | 39.48730 | -44.87073 | 39350 ft | 402 kts | 244° |
| 2026-05-05 17:51 | 39.45926 | -44.93338 | 39354 ft | 402 kts | 244° |
| 2026-05-05 17:52 | 39.43116 | -44.99603 | 39355 ft | 402 kts | 244° |
| 2026-05-05 17:52 | 39.40305 | -45.05858 | 39359 ft | 401 kts | 244° |
| 2026-05-05 17:53 | 39.37497 | -45.12095 | 39360 ft | 401 kts | 244° |
| 2026-05-05 17:53 | 39.34684 | -45.18332 | 39364 ft | 401 kts | 244° |
| 2026-05-05 17:54 | 39.31866 | -45.24565 | 39363 ft | 402 kts | 244° |
| 2026-05-05 17:54 | 39.29063 | -45.30754 | 39369 ft | 402 kts | 244° |
| 2026-05-05 17:55 | 39.26240 | -45.36975 | 39372 ft | 401 kts | 244° |
| 2026-05-05 17:55 | 39.23415 | -45.43187 | 39376 ft | 401 kts | 243° |
| 2026-05-05 17:56 | 39.20590 | -45.49387 | 39374 ft | 400 kts | 243° |
| 2026-05-05 17:56 | 39.17775 | -45.55554 | 39374 ft | 399 kts | 243° |
| 2026-05-05 17:57 | 39.14952 | -45.61724 | 39369 ft | 399 kts | 243° |
| 2026-05-05 17:57 | 39.12133 | -45.67876 | 39373 ft | 398 kts | 243° |
| 2026-05-05 17:58 | 39.09330 | -45.73981 | 39367 ft | 399 kts | 243° |
| 2026-05-05 17:58 | 39.06499 | -45.80133 | 39369 ft | 399 kts | 243° |
| 2026-05-05 17:59 | 39.03666 | -45.86280 | 39367 ft | 400 kts | 243° |
| 2026-05-05 17:59 | 39.00821 | -45.92437 | 39368 ft | 400 kts | 243° |
| 2026-05-05 18:00 | 38.97972 | -45.98594 | 39367 ft | 401 kts | 243° |
| 2026-05-05 18:00 | 38.95117 | -46.04753 | 39369 ft | 401 kts | 243° |
| 2026-05-05 18:01 | 38.92259 | -46.10904 | 39367 ft | 401 kts | 243° |
| 2026-05-05 18:01 | 38.89398 | -46.17050 | 39368 ft | 401 kts | 243° |
| 2026-05-05 18:02 | 38.86552 | -46.23154 | 39368 ft | 401 kts | 243° |
| 2026-05-05 18:02 | 38.83677 | -46.29306 | 39374 ft | 402 kts | 243° |
| 2026-05-05 18:03 | 38.80798 | -46.35455 | 39374 ft | 402 kts | 243° |
| 2026-05-05 18:03 | 38.77915 | -46.41601 | 39375 ft | 402 kts | 243° |
| 2026-05-05 18:04 | 38.75029 | -46.47741 | 39373 ft | 402 kts | 243° |
| 2026-05-05 18:04 | 38.72139 | -46.53879 | 39375 ft | 402 kts | 243° |
| 2026-05-05 18:05 | 38.69247 | -46.60008 | 39371 ft | 402 kts | 243° |
| 2026-05-05 18:05 | 38.66372 | -46.66092 | 39366 ft | 401 kts | 243° |
| 2026-05-05 18:06 | 38.63478 | -46.72203 | 39366 ft | 401 kts | 243° |
| 2026-05-05 18:06 | 38.60586 | -46.78297 | 39365 ft | 400 kts | 243° |
| 2026-05-05 18:07 | 38.57696 | -46.84375 | 39369 ft | 400 kts | 242° |
| 2026-05-05 18:07 | 38.54816 | -46.90423 | 39364 ft | 399 kts | 242° |
| 2026-05-05 18:08 | 38.51924 | -46.96484 | 39361 ft | 399 kts | 242° |
| 2026-05-05 18:08 | 38.49026 | -47.02544 | 39361 ft | 399 kts | 242° |
| 2026-05-05 18:09 | 38.46151 | -47.08548 | 39357 ft | 399 kts | 242° |
| 2026-05-05 18:09 | 38.43254 | -47.14584 | 39357 ft | 398 kts | 242° |
| 2026-05-05 18:10 | 38.40356 | -47.20612 | 39358 ft | 399 kts | 242° |
| 2026-05-05 18:10 | 38.37456 | -47.26633 | 39355 ft | 398 kts | 242° |
| 2026-05-05 18:11 | 38.34553 | -47.32650 | 39367 ft | 398 kts | 242° |
| 2026-05-05 18:11 | 38.31649 | -47.38656 | 39367 ft | 398 kts | 242° |
| 2026-05-05 18:12 | 38.28766 | -47.44608 | 39358 ft | 397 kts | 242° |
| 2026-05-05 18:12 | 38.25865 | -47.50585 | 39356 ft | 397 kts | 242° |
| 2026-05-05 18:13 | 38.22960 | -47.56562 | 39351 ft | 397 kts | 242° |
| 2026-05-05 18:13 | 38.20056 | -47.62524 | 39344 ft | 396 kts | 242° |
| 2026-05-05 18:14 | 38.17151 | -47.68477 | 39352 ft | 396 kts | 241° |
| 2026-05-05 18:14 | 38.14249 | -47.74413 | 39352 ft | 395 kts | 241° |
| 2026-05-05 18:15 | 38.11361 | -47.80310 | 39346 ft | 395 kts | 241° |
| 2026-05-05 18:15 | 38.08456 | -47.86233 | 39348 ft | 395 kts | 241° |
| 2026-05-05 18:16 | 38.05548 | -47.92149 | 39351 ft | 395 kts | 241° |
| 2026-05-05 18:16 | 38.02636 | -47.98064 | 39349 ft | 394 kts | 241° |
| 2026-05-05 18:17 | 37.99725 | -48.03965 | 39350 ft | 395 kts | 241° |
| 2026-05-05 18:17 | 37.96809 | -48.09865 | 39352 ft | 394 kts | 241° |
| 2026-05-05 18:18 | 37.93912 | -48.15716 | 39354 ft | 394 kts | 241° |
| 2026-05-05 18:18 | 37.90996 | -48.21596 | 39351 ft | 394 kts | 241° |
| 2026-05-05 18:19 | 37.88074 | -48.27476 | 39353 ft | 394 kts | 241° |
| 2026-05-05 18:19 | 37.85150 | -48.33352 | 39346 ft | 394 kts | 240° |
| 2026-05-05 18:20 | 37.82241 | -48.39186 | 39346 ft | 394 kts | 240° |
| 2026-05-05 18:20 | 37.79313 | -48.45048 | 39349 ft | 394 kts | 240° |
| 2026-05-05 18:21 | 37.76386 | -48.50897 | 39351 ft | 394 kts | 240° |
| 2026-05-05 18:21 | 37.73453 | -48.56747 | 39345 ft | 393 kts | 240° |
| 2026-05-05 18:22 | 37.70517 | -48.62595 | 39345 ft | 394 kts | 240° |
| 2026-05-05 18:22 | 37.67596 | -48.68400 | 39344 ft | 394 kts | 240° |
| 2026-05-05 18:23 | 37.64649 | -48.74247 | 39342 ft | 394 kts | 240° |
| 2026-05-05 18:23 | 37.61706 | -48.80076 | 39344 ft | 394 kts | 240° |
| 2026-05-05 18:24 | 37.58764 | -48.85894 | 39343 ft | 394 kts | 240° |
| 2026-05-05 18:24 | 37.55828 | -48.91689 | 39340 ft | 394 kts | 240° |
| 2026-05-05 18:25 | 37.52870 | -48.97517 | 39340 ft | 395 kts | 240° |
| 2026-05-05 18:25 | 37.49904 | -49.03351 | 39344 ft | 395 kts | 240° |
| 2026-05-05 18:26 | 37.47435 | -49.08199 | 39340 ft | 395 kts | 240° |
| 2026-05-05 18:26 | 37.44463 | -49.14024 | 39339 ft | 396 kts | 240° |
| 2026-05-05 18:27 | 37.41485 | -49.19853 | 39334 ft | 396 kts | 240° |
| 2026-05-05 18:27 | 37.38503 | -49.25678 | 39339 ft | 396 kts | 240° |
| 2026-05-05 18:28 | 37.34021 | -49.34416 | 39335 ft | 397 kts | 240° |
| 2026-05-05 18:28 | 37.31027 | -49.40240 | 39335 ft | 397 kts | 239° |
| 2026-05-05 18:29 | 37.28023 | -49.46072 | 39336 ft | 397 kts | 239° |
| 2026-05-05 18:29 | 37.25018 | -49.51897 | 39336 ft | 397 kts | 239° |
| 2026-05-05 18:30 | 37.22032 | -49.57675 | 39343 ft | 397 kts | 239° |
| 2026-05-05 18:30 | 37.19017 | -49.63499 | 39336 ft | 398 kts | 239° |
| 2026-05-05 18:31 | 37.15988 | -49.69339 | 39049 ft | 399 kts | 239° |
| 2026-05-05 18:31 | 37.14489 | -49.72222 | 39182 ft | 391 kts | 239° |
| 2026-05-05 18:31 | 37.13005 | -49.75079 | 39318 ft | 392 kts | 239° |
| 2026-05-05 18:32 | 37.10000 | -49.80858 | 39353 ft | 399 kts | 239° |
| 2026-05-05 18:32 | 37.06957 | -49.86690 | 39350 ft | 400 kts | 239° |
| 2026-05-05 18:33 | 37.03930 | -49.92489 | 39348 ft | 400 kts | 239° |
| 2026-05-05 18:33 | 37.00883 | -49.98313 | 39348 ft | 399 kts | 239° |
| 2026-05-05 18:34 | 36.98146 | -50.04328 | 39348 ft | 398 kts | 243° |
| 2026-05-05 18:34 | 36.95505 | -50.10409 | 39348 ft | 397 kts | 243° |
| 2026-05-05 18:35 | 36.92876 | -50.16505 | 39346 ft | 397 kts | 243° |
| 2026-05-05 18:35 | 36.90254 | -50.22550 | 39344 ft | 396 kts | 243° |
| 2026-05-05 18:36 | 36.87624 | -50.28613 | 39335 ft | 397 kts | 243° |
| 2026-05-05 18:36 | 36.84985 | -50.34682 | 39341 ft | 397 kts | 243° |
| 2026-05-05 18:37 | 36.82358 | -50.40713 | 39342 ft | 397 kts | 243° |
| 2026-05-05 18:37 | 36.79710 | -50.46779 | 39337 ft | 397 kts | 243° |
| 2026-05-05 18:38 | 36.77058 | -50.52846 | 39332 ft | 398 kts | 243° |
| 2026-05-05 18:38 | 36.74420 | -50.58867 | 39330 ft | 398 kts | 243° |
| 2026-05-05 18:39 | 36.71760 | -50.64929 | 39327 ft | 399 kts | 243° |
| 2026-05-05 18:39 | 36.69087 | -50.71008 | 39327 ft | 399 kts | 243° |
| 2026-05-05 18:40 | 36.66411 | -50.77083 | 39329 ft | 399 kts | 243° |
| 2026-05-05 18:40 | 36.63735 | -50.83147 | 39332 ft | 400 kts | 243° |
| 2026-05-05 18:41 | 36.61074 | -50.89166 | 39329 ft | 399 kts | 243° |
| 2026-05-05 18:41 | 36.58392 | -50.95221 | 39331 ft | 400 kts | 243° |
| 2026-05-05 18:42 | 36.55702 | -51.01282 | 39329 ft | 400 kts | 243° |
| 2026-05-05 18:42 | 36.53009 | -51.07340 | 39323 ft | 400 kts | 243° |
| 2026-05-05 18:43 | 36.50316 | -51.13388 | 39319 ft | 400 kts | 243° |
| 2026-05-05 18:43 | 36.47612 | -51.19447 | 39316 ft | 401 kts | 242° |
| 2026-05-05 18:44 | 36.44931 | -51.25484 | 39318 ft | 401 kts | 243° |
| 2026-05-05 18:44 | 36.42274 | -51.31582 | 39314 ft | 402 kts | 243° |
| 2026-05-05 18:45 | 36.39631 | -51.37703 | 39315 ft | 402 kts | 243° |
| 2026-05-05 18:45 | 36.37174 | -51.43448 | 39335 ft | 402 kts | 243° |
| 2026-05-05 18:46 | 36.34568 | -51.49601 | 39363 ft | 403 kts | 244° |
| 2026-05-05 18:46 | 36.31979 | -51.55780 | 39388 ft | 403 kts | 244° |
| 2026-05-05 18:47 | 36.29417 | -51.61970 | 39394 ft | 404 kts | 244° |
| 2026-05-05 18:47 | 36.26893 | -51.68145 | 39385 ft | 404 kts | 244° |
| 2026-05-05 18:48 | 36.24381 | -51.74371 | 39333 ft | 404 kts | 244° |
| 2026-05-05 18:48 | 36.21895 | -51.80621 | 39295 ft | 403 kts | 245° |
| 2026-05-05 18:49 | 36.19444 | -51.86877 | 39269 ft | 403 kts | 245° |
| 2026-05-05 18:49 | 36.17040 | -51.93113 | 39234 ft | 402 kts | 245° |
| 2026-05-05 18:50 | 36.14661 | -51.99387 | 39185 ft | 402 kts | 245° |
| 2026-05-05 18:50 | 36.12316 | -52.05682 | 39084 ft | 403 kts | 246° |
| 2026-05-05 18:51 | 36.10007 | -52.11999 | 39014 ft | 403 kts | 246° |
| 2026-05-05 18:51 | 36.07740 | -52.18329 | 39024 ft | 402 kts | 246° |
| 2026-05-05 18:52 | 36.05526 | -52.24640 | 39129 ft | 403 kts | 247° |
| 2026-05-05 18:52 | 36.03327 | -52.31046 | 39228 ft | 405 kts | 247° |
| 2026-05-05 18:53 | 36.01166 | -52.37496 | 39301 ft | 406 kts | 248° |
| 2026-05-05 18:53 | 35.99050 | -52.43976 | 39383 ft | 406 kts | 248° |
| 2026-05-05 18:54 | 35.96991 | -52.50459 | 39409 ft | 406 kts | 249° |
| 2026-05-05 18:54 | 35.94997 | -52.56934 | 39312 ft | 406 kts | 249° |
| 2026-05-05 18:55 | 35.93047 | -52.63475 | 39162 ft | 406 kts | 249° |
| 2026-05-05 18:55 | 35.91159 | -52.70040 | 39023 ft | 405 kts | 250° |
| 2026-05-05 18:56 | 35.89342 | -52.76602 | 38966 ft | 403 kts | 250° |
| 2026-05-05 18:56 | 35.87598 | -52.83167 | 38951 ft | 402 kts | 251° |
| 2026-05-05 18:57 | 35.85925 | -52.89757 | 39079 ft | 404 kts | 252° |
| 2026-05-05 18:57 | 35.84319 | -52.96403 | 39269 ft | 405 kts | 252° |
| 2026-05-05 18:58 | 35.82794 | -53.03068 | 39468 ft | 406 kts | 253° |
| 2026-05-05 18:58 | 35.82059 | -53.06430 | 39579 ft | 406 kts | 253° |
| 2026-05-05 18:58 | 35.81346 | -53.09800 | 39646 ft | 407 kts | 254° |
| 2026-05-05 18:59 | 35.79990 | -53.16559 | 39605 ft | 406 kts | 255° |
| 2026-05-05 18:59 | 35.78742 | -53.23286 | 39355 ft | 404 kts | 255° |
| 2026-05-05 19:00 | 35.78153 | -53.26673 | 39188 ft | 403 kts | 256° |
| 2026-05-05 19:00 | 35.77593 | -53.30050 | 39035 ft | 402 kts | 256° |
| 2026-05-05 19:00 | 35.77063 | -53.33416 | 38905 ft | 400 kts | 256° |
| 2026-05-05 19:00 | 35.76560 | -53.36783 | 38759 ft | 399 kts | 257° |
| 2026-05-05 19:01 | 35.76085 | -53.40152 | 38656 ft | 399 kts | 257° |
| 2026-05-05 19:01 | 35.75639 | -53.43525 | 38662 ft | 398 kts | 258° |
| 2026-05-05 19:01 | 35.75223 | -53.46895 | 38784 ft | 398 kts | 258° |
| 2026-05-05 19:01 | 35.74835 | -53.50274 | 38977 ft | 399 kts | 259° |
| 2026-05-05 19:02 | 35.74477 | -53.53673 | 39158 ft | 400 kts | 259° |
| 2026-05-05 19:02 | 35.74148 | -53.57082 | 39270 ft | 402 kts | 260° |
| 2026-05-05 19:02 | 35.73582 | -53.63968 | 39459 ft | 405 kts | 261° |
| 2026-05-05 19:03 | 35.73154 | -53.70858 | 39632 ft | 407 kts | 262° |
| 2026-05-05 19:03 | 35.72869 | -53.77814 | 39640 ft | 406 kts | 263° |
| 2026-05-05 19:04 | 35.72785 | -53.81287 | 39539 ft | 406 kts | 264° |
| 2026-05-05 19:04 | 35.72740 | -53.84764 | 39392 ft | 406 kts | 264° |
| 2026-05-05 19:04 | 35.72736 | -53.88229 | 39239 ft | 405 kts | 265° |
| 2026-05-05 19:04 | 35.72774 | -53.91691 | 39080 ft | 404 kts | 266° |
| 2026-05-05 19:05 | 35.72854 | -53.95142 | 38932 ft | 403 kts | 266° |
| 2026-05-05 19:05 | 35.72977 | -53.98589 | 38763 ft | 403 kts | 267° |
| 2026-05-05 19:05 | 35.73142 | -54.02026 | 38647 ft | 403 kts | 268° |
| 2026-05-05 19:05 | 35.73350 | -54.05433 | 38613 ft | 403 kts | 268° |
| 2026-05-05 19:06 | 35.73908 | -54.12329 | 38847 ft | 406 kts | 270° |
| 2026-05-05 19:06 | 35.74258 | -54.15783 | 39049 ft | 407 kts | 271° |
| 2026-05-05 19:06 | 35.74658 | -54.19238 | 39224 ft | 408 kts | 272° |
| 2026-05-05 19:07 | 35.75108 | -54.22696 | 39345 ft | 411 kts | 272° |
| 2026-05-05 19:07 | 35.75437 | -54.25004 | 39400 ft | 412 kts | 273° |
| 2026-05-05 19:07 | 35.76173 | -54.29655 | 39542 ft | 414 kts | 275° |
| 2026-05-05 19:07 | 35.76787 | -54.33117 | 39606 ft | 415 kts | 276° |
| 2026-05-05 19:08 | 35.78191 | -54.40030 | 39549 ft | 417 kts | 277° |
| 2026-05-05 19:08 | 35.78972 | -54.43427 | 39431 ft | 417 kts | 278° |
| 2026-05-05 19:08 | 35.79823 | -54.46847 | 39289 ft | 417 kts | 279° |
| 2026-05-05 19:09 | 35.80736 | -54.50248 | 39128 ft | 417 kts | 280° |
| 2026-05-05 19:09 | 35.81707 | -54.53609 | 38978 ft | 417 kts | 281° |
| 2026-05-05 19:09 | 35.82742 | -54.56951 | 38809 ft | 417 kts | 282° |
| 2026-05-05 19:09 | 35.83839 | -54.60260 | 38648 ft | 417 kts | 283° |
| 2026-05-05 19:10 | 35.85003 | -54.63551 | 38535 ft | 419 kts | 284° |
| 2026-05-05 19:10 | 35.86234 | -54.66819 | 38525 ft | 421 kts | 286° |
| 2026-05-05 19:10 | 35.88902 | -54.73275 | 38809 ft | 425 kts | 288° |
| 2026-05-05 19:11 | 35.90344 | -54.76463 | 39037 ft | 426 kts | 289° |
| 2026-05-05 19:11 | 35.91845 | -54.79591 | 39219 ft | 429 kts | 291° |
| 2026-05-05 19:11 | 35.95112 | -54.85839 | 39402 ft | 436 kts | 294° |
| 2026-05-05 19:12 | 35.98690 | -54.91915 | 39458 ft | 440 kts | 296° |
| 2026-05-05 19:12 | 36.01912 | -54.96822 | 39289 ft | 443 kts | 299° |
| 2026-05-05 19:13 | 36.03948 | -54.99681 | 39123 ft | 444 kts | 300° |
| 2026-05-05 19:13 | 36.06059 | -55.02470 | 38936 ft | 445 kts | 301° |
| 2026-05-05 19:13 | 36.08249 | -55.05191 | 38688 ft | 447 kts | 303° |
| 2026-05-05 19:13 | 36.10515 | -55.07833 | 38457 ft | 448 kts | 305° |
| 2026-05-05 19:14 | 36.12865 | -55.10404 | 38263 ft | 450 kts | 307° |
| 2026-05-05 19:14 | 36.15282 | -55.12883 | 38161 ft | 453 kts | 308° |
| 2026-05-05 19:14 | 36.20329 | -55.17567 | 38266 ft | 461 kts | 311° |
| 2026-05-05 19:15 | 36.22998 | -55.19798 | 38534 ft | 464 kts | 313° |
| 2026-05-05 19:15 | 36.25744 | -55.21930 | 38806 ft | 468 kts | 315° |
| 2026-05-05 19:15 | 36.28579 | -55.23972 | 38956 ft | 474 kts | 316° |
| 2026-05-05 19:15 | 36.31518 | -55.25929 | 39033 ft | 480 kts | 319° |
| 2026-05-05 19:16 | 36.37609 | -55.29475 | 39142 ft | 487 kts | 323° |
| 2026-05-05 19:16 | 36.43961 | -55.32495 | 38897 ft | 496 kts | 327° |
| 2026-05-05 19:17 | 36.47301 | -55.33820 | 38676 ft | 498 kts | 329° |
| 2026-05-05 19:17 | 36.50611 | -55.34957 | 38418 ft | 501 kts | 332° |
| 2026-05-05 19:17 | 36.54009 | -55.35948 | 38148 ft | 503 kts | 334° |
| 2026-05-05 19:17 | 36.57459 | -55.36774 | 37918 ft | 506 kts | 337° |
| 2026-05-05 19:18 | 36.60955 | -55.37429 | 37736 ft | 510 kts | 340° |
| 2026-05-05 19:18 | 36.64502 | -55.37909 | 37676 ft | 514 kts | 342° |
| 2026-05-05 19:18 | 36.71725 | -55.38323 | 37957 ft | 526 kts | 347° |
| 2026-05-05 19:19 | 36.75409 | -55.38243 | 38236 ft | 531 kts | 350° |
| 2026-05-05 19:19 | 36.79127 | -55.37964 | 38405 ft | 538 kts | 353° |
| 2026-05-05 19:19 | 36.86604 | -55.36790 | 38557 ft | 550 kts | 359° |
| 2026-05-05 19:20 | 36.94137 | -55.34716 | 38470 ft | 559 kts | 5° |
| 2026-05-05 19:20 | 36.97876 | -55.33332 | 38333 ft | 561 kts | 8° |
| 2026-05-05 19:20 | 37.01578 | -55.31707 | 38153 ft | 563 kts | 12° |
| 2026-05-05 19:21 | 37.05212 | -55.29852 | 37946 ft | 566 kts | 15° |
| 2026-05-05 19:21 | 37.08786 | -55.27756 | 37752 ft | 567 kts | 19° |
| 2026-05-05 19:21 | 37.12275 | -55.25424 | 37584 ft | 569 kts | 22° |
| 2026-05-05 19:21 | 37.15674 | -55.22856 | 37456 ft | 572 kts | 26° |
| 2026-05-05 19:22 | 37.22127 | -55.17039 | 37467 ft | 578 kts | 33° |
| 2026-05-05 19:22 | 37.25203 | -55.13750 | 37638 ft | 583 kts | 38° |
| 2026-05-05 19:22 | 37.28145 | -55.10219 | 37875 ft | 586 kts | 41° |
| 2026-05-05 19:23 | 37.30924 | -55.06468 | 38137 ft | 589 kts | 46° |
| 2026-05-05 19:23 | 37.33544 | -55.02478 | 38288 ft | 593 kts | 50° |
| 2026-05-05 19:23 | 37.35986 | -54.98253 | 38404 ft | 597 kts | 54° |
| 2026-05-05 19:23 | 37.38203 | -54.93847 | 38521 ft | 596 kts | 59° |
| 2026-05-05 19:24 | 37.41921 | -54.84537 | 38503 ft | 595 kts | 69° |
| 2026-05-05 19:24 | 37.43392 | -54.79669 | 38354 ft | 594 kts | 73° |
| 2026-05-05 19:24 | 37.44569 | -54.74761 | 38170 ft | 590 kts | 78° |
| 2026-05-05 19:25 | 37.45467 | -54.69733 | 37972 ft | 586 kts | 83° |
| 2026-05-05 19:25 | 37.46061 | -54.64679 | 37768 ft | 581 kts | 88° |
| 2026-05-05 19:25 | 37.46346 | -54.59619 | 37592 ft | 576 kts | 94° |
| 2026-05-05 19:25 | 37.46316 | -54.54595 | 37460 ft | 571 kts | 99° |
| 2026-05-05 19:26 | 37.45301 | -54.44835 | 37448 ft | 561 kts | 110° |
| 2026-05-05 19:26 | 37.44308 | -54.40122 | 37635 ft | 555 kts | 117° |
| 2026-05-05 19:26 | 37.42989 | -54.35581 | 37896 ft | 547 kts | 123° |
| 2026-05-05 19:27 | 37.41365 | -54.31291 | 38118 ft | 539 kts | 129° |
| 2026-05-05 19:27 | 37.39436 | -54.27274 | 38246 ft | 531 kts | 136° |
| 2026-05-05 19:27 | 37.34765 | -54.20333 | 38450 ft | 508 kts | 150° |
| 2026-05-05 19:28 | 37.32092 | -54.17517 | 38574 ft | 495 kts | 158° |
| 2026-05-05 19:28 | 37.29251 | -54.15200 | 38681 ft | 481 kts | 165° |
| 2026-05-05 19:28 | 37.26307 | -54.13430 | 38787 ft | 466 kts | 173° |
| 2026-05-05 19:28 | 37.23271 | -54.12215 | 38907 ft | 450 kts | 181° |
| 2026-05-05 19:29 | 37.20237 | -54.11598 | 39017 ft | 434 kts | 189° |
| 2026-05-05 19:29 | 37.17274 | -54.11592 | 39105 ft | 419 kts | 198° |
| 2026-05-05 19:29 | 37.14438 | -54.12203 | 39189 ft | 406 kts | 206° |
| 2026-05-05 19:29 | 37.11830 | -54.13413 | 39307 ft | 394 kts | 215° |
| 2026-05-05 19:30 | 37.09526 | -54.15190 | 39436 ft | 385 kts | 225° |
| 2026-05-05 19:30 | 37.07603 | -54.17480 | 39531 ft | 380 kts | 234° |
| 2026-05-05 19:30 | 37.05205 | -54.23311 | 39718 ft | 382 kts | 254° |
| 2026-05-05 19:31 | 37.04870 | -54.26627 | 39817 ft | 389 kts | 265° |
| 2026-05-05 19:31 | 37.05172 | -54.30039 | 39888 ft | 401 kts | 276° |
| 2026-05-05 19:31 | 37.06134 | -54.33380 | 39904 ft | 416 kts | 287° |
| 2026-05-05 19:31 | 37.07718 | -54.36439 | 39828 ft | 434 kts | 298° |
| 2026-05-05 19:32 | 37.09929 | -54.39134 | 39633 ft | 455 kts | 310° |
| 2026-05-05 19:32 | 37.12681 | -54.41267 | 39337 ft | 476 kts | 321° |
| 2026-05-05 19:32 | 37.15873 | -54.42699 | 38917 ft | 500 kts | 333° |
| 2026-05-05 19:32 | 37.19392 | -54.43324 | 38357 ft | 522 kts | 346° |
| 2026-05-05 19:33 | 37.23076 | -54.43044 | 37908 ft | 539 kts | 359° |
| 2026-05-05 19:33 | 37.26745 | -54.41826 | 37558 ft | 551 kts | 12° |
| 2026-05-05 19:33 | 37.30228 | -54.39702 | 37184 ft | 563 kts | 25° |
| 2026-05-05 19:33 | 37.33382 | -54.36723 | 36823 ft | 573 kts | 38° |
| 2026-05-05 19:34 | 37.36055 | -54.32973 | 36611 ft | 579 kts | 52° |
| 2026-05-05 19:34 | 37.38095 | -54.28605 | 36620 ft | 582 kts | 66° |
| 2026-05-05 19:34 | 37.39391 | -54.23783 | 36845 ft | 581 kts | 81° |
| 2026-05-05 19:35 | 37.39432 | -54.13865 | 37411 ft | 559 kts | 112° |
| 2026-05-05 19:35 | 37.38164 | -54.09321 | 37428 ft | 543 kts | 128° |
| 2026-05-05 19:35 | 37.36105 | -54.05474 | 37508 ft | 518 kts | 145° |
| 2026-05-05 19:35 | 37.33442 | -54.02657 | 37755 ft | 484 kts | 163° |
| 2026-05-05 19:36 | 37.30466 | -54.01110 | 38070 ft | 445 kts | 182° |
| 2026-05-05 19:36 | 37.27513 | -54.00936 | 38309 ft | 410 kts | 202° |
| 2026-05-05 19:36 | 37.24977 | -54.02095 | 38420 ft | 383 kts | 222° |
| 2026-05-05 19:36 | 37.23181 | -54.04436 | 38512 ft | 371 kts | 243° |